sensor_id;sensor_type;location;lat;lon;timestamp;temperature;humidity
14475;DHT22;7323;50.848;4.334;2023-03-31T00:00:33;13.00;99.90
14475;DHT22;7323;50.848;4.334;2023-03-31T00:09:28;12.90;99.90
14475;DHT22;7323;50.848;4.334;2023-03-31T00:12:53;12.90;99.90
14475;DHT22;7323;50.848;4.334;2023-03-31T00:16:12;12.90;99.90
14475;DHT22;7323;50.848;4.334;2023-03-31T00:18:50;12.90;99.90
14475;DHT22;7323;50.848;4.334;2023-03-31T00:21:20;13.00;99.90
14475;DHT22;7323;50.848;4.334;2023-03-31T00:24:16;12.90;99.90
14475;DHT22;7323;50.848;4.334;2023-03-31T00:30:14;12.70;99.90
14475;DHT22;7323;50.848;4.334;2023-03-31T00:32:40;12.80;99.90
14475;DHT22;7323;50.848;4.334;2023-03-31T00:35:09;12.60;99.90
14475;DHT22;7323;50.848;4.334;2023-03-31T00:38:00;12.60;99.90
14475;DHT22;7323;50.848;4.334;2023-03-31T00:40:56;12.60;99.90
14475;DHT22;7323;50.848;4.334;2023-03-31T00:50:13;12.50;99.90
14475;DHT22;7323;50.848;4.334;2023-03-31T00:53:07;12.40;99.90
14475;DHT22;7323;50.848;4.334;2023-03-31T00:56:06;12.40;99.90
14475;DHT22;7323;50.848;4.334;2023-03-31T00:58:42;12.40;99.90
14475;DHT22;7323;50.848;4.334;2023-03-31T01:01:19;12.40;99.90
14475;DHT22;7323;50.848;4.334;2023-03-31T01:04:15;12.30;99.90
14475;DHT22;7323;50.848;4.334;2023-03-31T01:11:05;12.30;99.90
14475;DHT22;7323;50.848;4.334;2023-03-31T01:38:03;12.10;99.90
14475;DHT22;7323;50.848;4.334;2023-03-31T01:41:08;12.00;99.90
14475;DHT22;7323;50.848;4.334;2023-03-31T01:44:43;12.10;99.90
14475;DHT22;7323;50.848;4.334;2023-03-31T01:55:45;12.10;99.90
14475;DHT22;7323;50.848;4.334;2023-03-31T02:06:09;12.00;99.90
14475;DHT22;7323;50.848;4.334;2023-03-31T02:08:58;12.00;99.90
14475;DHT22;7323;50.848;4.334;2023-03-31T02:11:47;11.90;99.90
14475;DHT22;7323;50.848;4.334;2023-03-31T02:14:31;11.90;99.90
14475;DHT22;7323;50.848;4.334;2023-03-31T02:20:26;11.90;99.90
14475;DHT22;7323;50.848;4.334;2023-03-31T02:23:03;11.80;99.90
14475;DHT22;7323;50.848;4.334;2023-03-31T02:25:35;11.80;99.90
14475;DHT22;7323;50.848;4.334;2023-03-31T02:28:08;11.80;99.90
14475;DHT22;7323;50.848;4.334;2023-03-31T02:33:53;11.90;99.90
14475;DHT22;7323;50.848;4.334;2023-03-31T02:36:59;11.90;99.90
14475;DHT22;7323;50.848;4.334;2023-03-31T03:12:17;11.90;99.90
14475;DHT22;7323;50.848;4.334;2023-03-31T03:19:21;11.90;99.90
14475;DHT22;7323;50.848;4.334;2023-03-31T03:22:12;11.80;99.90
14475;DHT22;7323;50.848;4.334;2023-03-31T03:25:23;12.10;99.90
14475;DHT22;7323;50.848;4.334;2023-03-31T03:28:16;11.90;99.90
14475;DHT22;7323;50.848;4.334;2023-03-31T03:31:32;11.80;99.90
14475;DHT22;7323;50.848;4.334;2023-03-31T03:34:20;11.90;99.90
14475;DHT22;7323;50.848;4.334;2023-03-31T03:36:49;11.90;99.90
14475;DHT22;7323;50.848;4.334;2023-03-31T03:39:21;11.60;99.90
14475;DHT22;7323;50.848;4.334;2023-03-31T03:41:58;11.60;99.90
14475;DHT22;7323;50.848;4.334;2023-03-31T03:44:40;11.50;99.90
14475;DHT22;7323;50.848;4.334;2023-03-31T03:47:21;11.40;99.90
14475;DHT22;7323;50.848;4.334;2023-03-31T03:49:49;11.40;99.90
14475;DHT22;7323;50.848;4.334;2023-03-31T03:52:37;11.20;99.90
14475;DHT22;7323;50.848;4.334;2023-03-31T03:55:24;11.20;99.90
14475;DHT22;7323;50.848;4.334;2023-03-31T03:58:03;11.10;99.90
14475;DHT22;7323;50.848;4.334;2023-03-31T04:00:55;11.10;99.90
14475;DHT22;7323;50.848;4.334;2023-03-31T04:04:33;11.10;99.90
14475;DHT22;7323;50.848;4.334;2023-03-31T04:11:10;11.10;99.90
14475;DHT22;7323;50.848;4.334;2023-03-31T04:13:57;11.10;99.90
14475;DHT22;7323;50.848;4.334;2023-03-31T04:17:04;11.10;99.90
14475;DHT22;7323;50.848;4.334;2023-03-31T04:29:35;11.10;99.90
14475;DHT22;7323;50.848;4.334;2023-03-31T04:32:09;11.20;99.90
14475;DHT22;7323;50.848;4.334;2023-03-31T04:41:57;11.30;99.90
14475;DHT22;7323;50.848;4.334;2023-03-31T04:48:32;11.30;99.90
14475;DHT22;7323;50.848;4.334;2023-03-31T04:51:48;11.40;99.90
14475;DHT22;7323;50.848;4.334;2023-03-31T04:57:06;11.40;99.90
14475;DHT22;7323;50.848;4.334;2023-03-31T04:59:46;11.40;99.90
14475;DHT22;7323;50.848;4.334;2023-03-31T05:02:22;11.50;99.90
14475;DHT22;7323;50.848;4.334;2023-03-31T05:08:10;11.50;99.90
14475;DHT22;7323;50.848;4.334;2023-03-31T05:14:40;11.50;99.90
14475;DHT22;7323;50.848;4.334;2023-03-31T05:17:15;11.50;99.90
14475;DHT22;7323;50.848;4.334;2023-03-31T05:20:04;11.50;99.90
14475;DHT22;7323;50.848;4.334;2023-03-31T05:29:24;11.60;99.90
14475;DHT22;7323;50.848;4.334;2023-03-31T05:31:52;11.60;99.90
14475;DHT22;7323;50.848;4.334;2023-03-31T05:34:43;11.60;99.90
14475;DHT22;7323;50.848;4.334;2023-03-31T05:37:20;11.60;99.90
14475;DHT22;7323;50.848;4.334;2023-03-31T05:40:01;11.60;99.90
14475;DHT22;7323;50.848;4.334;2023-03-31T05:42:47;11.60;99.90
14475;DHT22;7323;50.848;4.334;2023-03-31T05:45:53;11.70;99.90
14475;DHT22;7323;50.848;4.334;2023-03-31T05:57:23;11.80;99.90
14475;DHT22;7323;50.848;4.334;2023-03-31T06:18:03;12.10;99.90
14475;DHT22;7323;50.848;4.334;2023-03-31T06:29:08;12.20;99.90
14475;DHT22;7323;50.848;4.334;2023-03-31T06:38:44;12.30;99.90
14475;DHT22;7323;50.848;4.334;2023-03-31T06:59:13;12.60;99.90
14475;DHT22;7323;50.848;4.334;2023-03-31T07:02:22;12.60;99.90
14475;DHT22;7323;50.848;4.334;2023-03-31T07:05:11;12.60;99.90
14475;DHT22;7323;50.848;4.334;2023-03-31T07:08:24;12.60;99.90
14475;DHT22;7323;50.848;4.334;2023-03-31T07:11:38;12.60;99.90
14475;DHT22;7323;50.848;4.334;2023-03-31T07:21:35;12.70;99.90
14475;DHT22;7323;50.848;4.334;2023-03-31T07:43:30;12.60;99.90
14475;DHT22;7323;50.848;4.334;2023-03-31T07:46:02;12.70;99.90
14475;DHT22;7323;50.848;4.334;2023-03-31T07:49:07;12.70;99.90
14475;DHT22;7323;50.848;4.334;2023-03-31T07:52:03;12.50;99.90
14475;DHT22;7323;50.848;4.334;2023-03-31T08:05:49;12.60;99.90
14475;DHT22;7323;50.848;4.334;2023-03-31T08:12:02;12.70;99.90
14475;DHT22;7323;50.848;4.334;2023-03-31T08:15:53;12.70;99.90
14475;DHT22;7323;50.848;4.334;2023-03-31T08:18:42;12.70;99.90
14475;DHT22;7323;50.848;4.334;2023-03-31T08:21:54;12.60;99.90
14475;DHT22;7323;50.848;4.334;2023-03-31T08:33:36;12.70;99.90
14475;DHT22;7323;50.848;4.334;2023-03-31T08:36:19;12.70;99.90
14475;DHT22;7323;50.848;4.334;2023-03-31T08:39:12;12.70;99.90
14475;DHT22;7323;50.848;4.334;2023-03-31T08:42:34;12.70;99.90
14475;DHT22;7323;50.848;4.334;2023-03-31T08:45:38;12.70;99.90
14475;DHT22;7323;50.848;4.334;2023-03-31T08:48:57;12.70;99.90
14475;DHT22;7323;50.848;4.334;2023-03-31T08:52:30;12.70;99.90
14475;DHT22;7323;50.848;4.334;2023-03-31T08:55:50;12.70;99.90
14475;DHT22;7323;50.848;4.334;2023-03-31T08:58:44;12.70;99.90
14475;DHT22;7323;50.848;4.334;2023-03-31T09:10:33;12.80;99.90
14475;DHT22;7323;50.848;4.334;2023-03-31T09:16:29;12.60;99.90
14475;DHT22;7323;50.848;4.334;2023-03-31T09:25:55;13.00;99.90
14475;DHT22;7323;50.848;4.334;2023-03-31T09:28:47;12.90;99.90
14475;DHT22;7323;50.848;4.334;2023-03-31T09:31:44;12.90;99.90
14475;DHT22;7323;50.848;4.334;2023-03-31T09:34:59;12.90;99.90
14475;DHT22;7323;50.848;4.334;2023-03-31T09:37:45;12.90;99.90
14475;DHT22;7323;50.848;4.334;2023-03-31T09:40:26;12.90;99.90
14475;DHT22;7323;50.848;4.334;2023-03-31T09:43:25;12.90;99.90
14475;DHT22;7323;50.848;4.334;2023-03-31T09:46:23;12.80;99.90
14475;DHT22;7323;50.848;4.334;2023-03-31T09:49:34;12.70;99.90
14475;DHT22;7323;50.848;4.334;2023-03-31T09:58:00;12.80;99.90
14475;DHT22;7323;50.848;4.334;2023-03-31T10:04:08;12.80;99.90
14475;DHT22;7323;50.848;4.334;2023-03-31T10:06:48;12.80;99.90
14475;DHT22;7323;50.848;4.334;2023-03-31T10:09:20;12.80;99.90
14475;DHT22;7323;50.848;4.334;2023-03-31T10:12:54;12.90;99.90
14475;DHT22;7323;50.848;4.334;2023-03-31T10:16:09;13.00;99.90
14475;DHT22;7323;50.848;4.334;2023-03-31T10:26:25;12.90;99.90
14475;DHT22;7323;50.848;4.334;2023-03-31T10:29:40;13.00;99.90
14475;DHT22;7323;50.848;4.334;2023-03-31T10:32:48;12.90;99.90
14475;DHT22;7323;50.848;4.334;2023-03-31T10:35:40;13.10;99.90
14475;DHT22;7323;50.848;4.334;2023-03-31T10:38:45;13.10;99.90
14475;DHT22;7323;50.848;4.334;2023-03-31T10:41:29;13.20;99.90
14475;DHT22;7323;50.848;4.334;2023-03-31T10:44:38;13.20;99.90
14475;DHT22;7323;50.848;4.334;2023-03-31T10:47:18;13.10;99.90
14475;DHT22;7323;50.848;4.334;2023-03-31T10:50:13;13.10;99.90
14475;DHT22;7323;50.848;4.334;2023-03-31T10:53:18;13.10;99.90
14475;DHT22;7323;50.848;4.334;2023-03-31T10:59:44;13.20;99.90
14475;DHT22;7323;50.848;4.334;2023-03-31T11:02:51;13.20;99.90
14475;DHT22;7323;50.848;4.334;2023-03-31T11:05:42;13.10;99.90
14475;DHT22;7323;50.848;4.334;2023-03-31T11:08:19;13.10;99.90
14475;DHT22;7323;50.848;4.334;2023-03-31T11:11:25;13.00;99.90
14475;DHT22;7323;50.848;4.334;2023-03-31T11:17:03;13.00;99.90
14475;DHT22;7323;50.848;4.334;2023-03-31T11:20:15;13.00;99.90
14475;DHT22;7323;50.848;4.334;2023-03-31T11:41:10;13.40;99.90
14475;DHT22;7323;50.848;4.334;2023-03-31T11:43:59;13.50;99.90
14475;DHT22;7323;50.848;4.334;2023-03-31T11:47:12;13.60;99.90
14475;DHT22;7323;50.848;4.334;2023-03-31T11:50:25;13.60;99.90
14475;DHT22;7323;50.848;4.334;2023-03-31T11:53:06;13.50;99.90
14475;DHT22;7323;50.848;4.334;2023-03-31T11:56:15;13.50;99.90
14475;DHT22;7323;50.848;4.334;2023-03-31T11:59:01;13.50;99.90
14475;DHT22;7323;50.848;4.334;2023-03-31T12:04:59;13.40;99.90
14475;DHT22;7323;50.848;4.334;2023-03-31T12:08:15;13.20;99.90
14475;DHT22;7323;50.848;4.334;2023-03-31T12:11:16;13.20;99.90
14475;DHT22;7323;50.848;4.334;2023-03-31T12:17:32;12.80;99.90
14475;DHT22;7323;50.848;4.334;2023-03-31T12:20:41;12.70;99.90
14475;DHT22;7323;50.848;4.334;2023-03-31T12:23:18;12.60;99.90
14475;DHT22;7323;50.848;4.334;2023-03-31T12:28:38;12.40;99.90
14475;DHT22;7323;50.848;4.334;2023-03-31T12:31:23;12.40;99.90
14475;DHT22;7323;50.848;4.334;2023-03-31T12:34:02;12.40;99.90
14475;DHT22;7323;50.848;4.334;2023-03-31T12:49:14;12.80;99.90
14475;DHT22;7323;50.848;4.334;2023-03-31T12:59:46;13.00;99.90
14475;DHT22;7323;50.848;4.334;2023-03-31T13:06:07;13.20;99.90
14475;DHT22;7323;50.848;4.334;2023-03-31T13:09:00;13.20;99.90
14475;DHT22;7323;50.848;4.334;2023-03-31T13:11:57;13.10;99.90
14475;DHT22;7323;50.848;4.334;2023-03-31T13:17:27;13.10;99.90
14475;DHT22;7323;50.848;4.334;2023-03-31T13:20:39;13.10;99.90
14475;DHT22;7323;50.848;4.334;2023-03-31T13:24:11;12.80;99.90
14475;DHT22;7323;50.848;4.334;2023-03-31T13:26:48;12.80;99.90
14475;DHT22;7323;50.848;4.334;2023-03-31T13:32:23;12.70;99.90
14475;DHT22;7323;50.848;4.334;2023-03-31T13:35:30;12.50;99.90
14475;DHT22;7323;50.848;4.334;2023-03-31T13:38:05;12.60;99.90
14475;DHT22;7323;50.848;4.334;2023-03-31T14:11:28;12.20;99.90
14475;DHT22;7323;50.848;4.334;2023-03-31T14:14:13;12.20;99.90
14475;DHT22;7323;50.848;4.334;2023-03-31T14:17:14;12.30;99.90
14475;DHT22;7323;50.848;4.334;2023-03-31T14:37:19;12.40;99.90
14475;DHT22;7323;50.848;4.334;2023-03-31T14:40:09;12.50;99.90
14475;DHT22;7323;50.848;4.334;2023-03-31T14:42:45;12.50;99.90
14475;DHT22;7323;50.848;4.334;2023-03-31T14:45:22;12.30;99.90
14475;DHT22;7323;50.848;4.334;2023-03-31T14:48:22;12.50;99.90
14475;DHT22;7323;50.848;4.334;2023-03-31T14:50:48;12.60;99.90
14475;DHT22;7323;50.848;4.334;2023-03-31T14:53:46;12.60;99.90
14475;DHT22;7323;50.848;4.334;2023-03-31T14:56:15;12.50;99.90
14475;DHT22;7323;50.848;4.334;2023-03-31T14:59:27;12.50;99.90
14475;DHT22;7323;50.848;4.334;2023-03-31T15:02:28;12.40;99.90
14475;DHT22;7323;50.848;4.334;2023-03-31T15:05:33;12.30;99.90
14475;DHT22;7323;50.848;4.334;2023-03-31T15:08:10;12.20;99.90
14475;DHT22;7323;50.848;4.334;2023-03-31T15:10:41;12.20;99.90
14475;DHT22;7323;50.848;4.334;2023-03-31T15:13:15;12.20;99.90
14475;DHT22;7323;50.848;4.334;2023-03-31T15:15:42;12.20;99.90
14475;DHT22;7323;50.848;4.334;2023-03-31T15:18:12;12.20;99.90
14475;DHT22;7323;50.848;4.334;2023-03-31T15:20:40;12.20;99.90
14475;DHT22;7323;50.848;4.334;2023-03-31T15:23:26;12.20;99.90
14475;DHT22;7323;50.848;4.334;2023-03-31T15:26:07;12.20;99.90
14475;DHT22;7323;50.848;4.334;2023-03-31T15:28:46;12.20;99.90
14475;DHT22;7323;50.848;4.334;2023-03-31T15:31:14;12.20;99.90
14475;DHT22;7323;50.848;4.334;2023-03-31T15:33:40;12.40;99.90
14475;DHT22;7323;50.848;4.334;2023-03-31T15:36:20;12.30;99.90
14475;DHT22;7323;50.848;4.334;2023-03-31T15:38:57;12.30;99.90
14475;DHT22;7323;50.848;4.334;2023-03-31T15:41:28;12.50;99.90
14475;DHT22;7323;50.848;4.334;2023-03-31T15:44:26;12.30;99.90
14475;DHT22;7323;50.848;4.334;2023-03-31T15:47:12;12.10;99.90
14475;DHT22;7323;50.848;4.334;2023-03-31T15:50:12;12.10;99.90
14475;DHT22;7323;50.848;4.334;2023-03-31T15:55:54;12.10;99.90
14475;DHT22;7323;50.848;4.334;2023-03-31T15:58:46;12.20;99.90
14475;DHT22;7323;50.848;4.334;2023-03-31T16:01:13;12.20;99.90
14475;DHT22;7323;50.848;4.334;2023-03-31T16:03:51;12.20;99.90
14475;DHT22;7323;50.848;4.334;2023-03-31T16:09:39;12.20;99.90
14475;DHT22;7323;50.848;4.334;2023-03-31T16:15:41;12.00;99.90
14475;DHT22;7323;50.848;4.334;2023-03-31T16:18:24;12.00;99.90
14475;DHT22;7323;50.848;4.334;2023-03-31T16:21:11;11.90;99.90
14475;DHT22;7323;50.848;4.334;2023-03-31T16:23:41;11.80;99.90
14475;DHT22;7323;50.848;4.334;2023-03-31T16:26:29;11.80;99.90
14475;DHT22;7323;50.848;4.334;2023-03-31T16:28:57;11.80;99.90
14475;DHT22;7323;50.848;4.334;2023-03-31T16:31:38;11.70;99.90
14475;DHT22;7323;50.848;4.334;2023-03-31T16:34:07;11.60;99.90
14475;DHT22;7323;50.848;4.334;2023-03-31T16:36:34;11.70;99.90
14475;DHT22;7323;50.848;4.334;2023-03-31T16:39:02;11.60;99.90
14475;DHT22;7323;50.848;4.334;2023-03-31T16:41:35;11.50;99.90
14475;DHT22;7323;50.848;4.334;2023-03-31T16:44:07;11.50;99.90
14475;DHT22;7323;50.848;4.334;2023-03-31T16:46:34;11.50;99.90
14475;DHT22;7323;50.848;4.334;2023-03-31T16:49:01;11.60;99.90
14475;DHT22;7323;50.848;4.334;2023-03-31T16:51:30;11.50;99.90
14475;DHT22;7323;50.848;4.334;2023-03-31T16:54:08;11.60;99.90
14475;DHT22;7323;50.848;4.334;2023-03-31T16:56:35;11.50;99.90
14475;DHT22;7323;50.848;4.334;2023-03-31T16:59:06;11.40;99.90
14475;DHT22;7323;50.848;4.334;2023-03-31T17:01:35;11.40;99.90
14475;DHT22;7323;50.848;4.334;2023-03-31T17:04:14;11.40;99.90
14475;DHT22;7323;50.848;4.334;2023-03-31T17:07:03;11.40;99.90
14475;DHT22;7323;50.848;4.334;2023-03-31T17:09:29;11.40;99.90
14475;DHT22;7323;50.848;4.334;2023-03-31T17:15:03;11.40;99.90
14475;DHT22;7323;50.848;4.334;2023-03-31T17:17:39;11.40;99.90
14475;DHT22;7323;50.848;4.334;2023-03-31T17:20:10;11.50;99.90
14475;DHT22;7323;50.848;4.334;2023-03-31T17:22:41;11.40;99.90
14475;DHT22;7323;50.848;4.334;2023-03-31T17:25:44;11.40;99.90
14475;DHT22;7323;50.848;4.334;2023-03-31T17:28:13;11.40;99.90
14475;DHT22;7323;50.848;4.334;2023-03-31T17:30:55;11.30;99.90
14475;DHT22;7323;50.848;4.334;2023-03-31T17:33:53;11.30;99.90
14475;DHT22;7323;50.848;4.334;2023-03-31T17:37:20;11.30;99.90
14475;DHT22;7323;50.848;4.334;2023-03-31T17:39:49;11.20;99.90
14475;DHT22;7323;50.848;4.334;2023-03-31T17:53:48;11.10;99.90
14475;DHT22;7323;50.848;4.334;2023-03-31T17:56:19;11.30;99.90
14475;DHT22;7323;50.848;4.334;2023-03-31T17:58:47;11.10;99.90
14475;DHT22;7323;50.848;4.334;2023-03-31T18:01:19;11.10;99.90
14475;DHT22;7323;50.848;4.334;2023-03-31T18:15:12;11.10;99.90
14475;DHT22;7323;50.848;4.334;2023-03-31T18:17:44;11.00;99.90
14475;DHT22;7323;50.848;4.334;2023-03-31T18:27:52;11.00;99.90
14475;DHT22;7323;50.848;4.334;2023-03-31T18:30:28;11.00;99.90
14475;DHT22;7323;50.848;4.334;2023-03-31T18:33:27;11.00;99.90
14475;DHT22;7323;50.848;4.334;2023-03-31T18:36:35;11.00;99.90
14475;DHT22;7323;50.848;4.334;2023-03-31T18:39:10;10.90;99.90
14475;DHT22;7323;50.848;4.334;2023-03-31T18:42:04;10.80;99.90
14475;DHT22;7323;50.848;4.334;2023-03-31T18:45:18;10.90;99.90
14475;DHT22;7323;50.848;4.334;2023-03-31T18:48:00;10.90;99.90
14475;DHT22;7323;50.848;4.334;2023-03-31T18:50:34;10.90;99.90
14475;DHT22;7323;50.848;4.334;2023-03-31T18:56:31;10.90;99.90
14475;DHT22;7323;50.848;4.334;2023-03-31T19:02:39;11.00;99.90
14475;DHT22;7323;50.848;4.334;2023-03-31T19:09:30;11.10;99.90
14475;DHT22;7323;50.848;4.334;2023-03-31T19:12:10;11.10;99.90
14475;DHT22;7323;50.848;4.334;2023-03-31T19:14:47;11.10;99.90
14475;DHT22;7323;50.848;4.334;2023-03-31T19:24:32;11.00;99.90
14475;DHT22;7323;50.848;4.334;2023-03-31T19:27:33;11.00;99.90
14475;DHT22;7323;50.848;4.334;2023-03-31T19:30:50;11.00;99.90
14475;DHT22;7323;50.848;4.334;2023-03-31T19:36:23;10.90;99.90
14475;DHT22;7323;50.848;4.334;2023-03-31T19:42:35;10.90;99.90
14475;DHT22;7323;50.848;4.334;2023-03-31T19:45:55;10.90;99.90
14475;DHT22;7323;50.848;4.334;2023-03-31T19:52:20;10.80;99.90
14475;DHT22;7323;50.848;4.334;2023-03-31T19:55:28;10.90;99.90
14475;DHT22;7323;50.848;4.334;2023-03-31T20:05:32;11.00;99.90
14475;DHT22;7323;50.848;4.334;2023-03-31T20:08:26;10.90;99.90
14475;DHT22;7323;50.848;4.334;2023-03-31T20:13:41;10.90;99.90
14475;DHT22;7323;50.848;4.334;2023-03-31T20:19:46;10.80;99.90
14475;DHT22;7323;50.848;4.334;2023-03-31T20:22:31;10.90;99.90
14475;DHT22;7323;50.848;4.334;2023-03-31T20:29:11;10.80;99.90
14475;DHT22;7323;50.848;4.334;2023-03-31T20:42:38;10.80;99.90
14475;DHT22;7323;50.848;4.334;2023-03-31T20:45:50;10.70;99.90
14475;DHT22;7323;50.848;4.334;2023-03-31T20:49:21;10.80;99.90
14475;DHT22;7323;50.848;4.334;2023-03-31T21:02:46;10.80;99.90
14475;DHT22;7323;50.848;4.334;2023-03-31T21:08:55;10.80;99.90
14475;DHT22;7323;50.848;4.334;2023-03-31T21:15:26;10.80;99.90
14475;DHT22;7323;50.848;4.334;2023-03-31T21:18:08;10.80;99.90
14475;DHT22;7323;50.848;4.334;2023-03-31T21:21:17;10.80;99.90
14475;DHT22;7323;50.848;4.334;2023-03-31T21:25:00;10.80;99.90
14475;DHT22;7323;50.848;4.334;2023-03-31T21:28:30;10.70;99.90
14475;DHT22;7323;50.848;4.334;2023-03-31T21:31:32;10.70;99.90
14475;DHT22;7323;50.848;4.334;2023-03-31T21:34:20;10.70;99.90
14475;DHT22;7323;50.848;4.334;2023-03-31T21:37:35;10.80;99.90
14475;DHT22;7323;50.848;4.334;2023-03-31T21:41:02;10.70;99.90
14475;DHT22;7323;50.848;4.334;2023-03-31T21:44:12;10.70;99.90
14475;DHT22;7323;50.848;4.334;2023-03-31T21:52:58;10.70;99.90
14475;DHT22;7323;50.848;4.334;2023-03-31T22:03:18;10.70;99.90
14475;DHT22;7323;50.848;4.334;2023-03-31T22:13:06;10.70;99.90
14475;DHT22;7323;50.848;4.334;2023-03-31T22:33:19;10.70;99.90
14475;DHT22;7323;50.848;4.334;2023-03-31T22:36:12;10.70;99.90
14475;DHT22;7323;50.848;4.334;2023-03-31T22:54:54;10.60;99.90
14475;DHT22;7323;50.848;4.334;2023-03-31T22:57:38;10.70;99.90
14475;DHT22;7323;50.848;4.334;2023-03-31T23:00:22;10.70;99.90
14475;DHT22;7323;50.848;4.334;2023-03-31T23:02:56;10.60;99.90
14475;DHT22;7323;50.848;4.334;2023-03-31T23:15:46;10.60;99.90
14475;DHT22;7323;50.848;4.334;2023-03-31T23:18:25;10.70;99.90
14475;DHT22;7323;50.848;4.334;2023-03-31T23:21:46;10.60;99.90
14475;DHT22;7323;50.848;4.334;2023-03-31T23:24:27;10.60;99.90
14475;DHT22;7323;50.848;4.334;2023-03-31T23:27:00;10.60;99.90
14475;DHT22;7323;50.848;4.334;2023-03-31T23:30:33;10.70;99.90
14475;DHT22;7323;50.848;4.334;2023-03-31T23:33:28;10.60;99.90
14475;DHT22;7323;50.848;4.334;2023-03-31T23:36:25;10.50;99.90
14475;DHT22;7323;50.848;4.334;2023-03-31T23:39:48;10.50;99.90
14475;DHT22;7323;50.848;4.334;2023-03-31T23:43:50;10.60;99.90
14475;DHT22;7323;50.848;4.334;2023-03-31T23:46:50;10.70;99.90
14475;DHT22;7323;50.848;4.334;2023-03-31T23:52:59;10.60;99.90
14475;DHT22;7323;50.848;4.334;2023-03-31T23:56:21;10.60;99.90
